sensor_id;sensor_type;location;lat;lon;timestamp;pressure;altitude;pressure_sealevel;temperature;humidity
16190;BME280;41754;51.498;7.540;2023-01-30T00:01:54;100547.66;;;3.52;74.60
16190;BME280;41754;51.498;7.540;2023-01-30T00:04:22;100535.38;;;3.82;73.61
16190;BME280;41754;51.498;7.540;2023-01-30T00:06:51;100541.91;;;3.48;73.80
16190;BME280;41754;51.498;7.540;2023-01-30T00:09:19;100531.97;;;3.59;74.54
16190;BME280;41754;51.498;7.540;2023-01-30T00:11:46;100544.97;;;3.57;75.09
16190;BME280;41754;51.498;7.540;2023-01-30T00:14:14;100554.78;;;3.90;74.41
16190;BME280;41754;51.498;7.540;2023-01-30T00:16:42;100548.31;;;3.64;75.10
16190;BME280;41754;51.498;7.540;2023-01-30T00:19:10;100547.88;;;3.77;75.20
16190;BME280;41754;51.498;7.540;2023-01-30T00:21:38;100543.81;;;3.80;74.51
16190;BME280;41754;51.498;7.540;2023-01-30T00:24:07;100542.09;;;3.69;75.56
16190;BME280;41754;51.498;7.540;2023-01-30T00:26:35;100551.59;;;3.66;75.71
16190;BME280;41754;51.498;7.540;2023-01-30T00:29:03;100557.47;;;3.85;76.27
16190;BME280;41754;51.498;7.540;2023-01-30T00:31:31;100542.78;;;4.23;75.86
16190;BME280;41754;51.498;7.540;2023-01-30T00:33:59;100527.19;;;3.76;74.47
16190;BME280;41754;51.498;7.540;2023-01-30T00:36:26;100526.22;;;3.93;76.03
16190;BME280;41754;51.498;7.540;2023-01-30T00:38:55;100531.16;;;3.96;76.55
16190;BME280;41754;51.498;7.540;2023-01-30T00:41:25;100514.41;;;4.19;75.10
16190;BME280;41754;51.498;7.540;2023-01-30T00:44:14;100513.50;;;4.03;75.84
16190;BME280;41754;51.498;7.540;2023-01-30T00:47:00;100491.56;;;4.20;76.35
16190;BME280;41754;51.498;7.540;2023-01-30T00:49:35;100485.59;;;4.28;75.02
16190;BME280;41754;51.498;7.540;2023-01-30T00:52:04;100493.28;;;4.36;74.94
16190;BME280;41754;51.498;7.540;2023-01-30T00:54:32;100479.00;;;4.19;75.50
16190;BME280;41754;51.498;7.540;2023-01-30T00:57:01;100480.75;;;4.35;75.80
16190;BME280;41754;51.498;7.540;2023-01-30T00:59:30;100485.25;;;4.10;76.48
16190;BME280;41754;51.498;7.540;2023-01-30T01:01:57;100481.69;;;4.09;76.44
16190;BME280;41754;51.498;7.540;2023-01-30T01:04:26;100479.19;;;4.50;76.14
16190;BME280;41754;51.498;7.540;2023-01-30T01:06:54;100494.38;;;4.41;76.03
16190;BME280;41754;51.498;7.540;2023-01-30T01:09:22;100472.69;;;4.61;75.22
16190;BME280;41754;51.498;7.540;2023-01-30T01:11:51;100471.16;;;4.28;75.44
16190;BME280;41754;51.498;7.540;2023-01-30T01:14:20;100468.38;;;4.13;77.41
16190;BME280;41754;51.498;7.540;2023-01-30T01:16:48;100461.47;;;3.95;77.82
16190;BME280;41754;51.498;7.540;2023-01-30T01:19:15;100461.09;;;4.28;77.68
16190;BME280;41754;51.498;7.540;2023-01-30T01:21:44;100436.56;;;4.23;77.24
16190;BME280;41754;51.498;7.540;2023-01-30T01:24:13;100438.31;;;4.50;76.28
16190;BME280;41754;51.498;7.540;2023-01-30T01:26:41;100442.66;;;4.46;76.68
16190;BME280;41754;51.498;7.540;2023-01-30T01:29:11;100437.81;;;4.63;75.96
16190;BME280;41754;51.498;7.540;2023-01-30T01:31:41;100431.50;;;4.47;75.64
16190;BME280;41754;51.498;7.540;2023-01-30T01:34:09;100425.31;;;4.77;74.71
16190;BME280;41754;51.498;7.540;2023-01-30T01:36:37;100397.00;;;5.19;73.40
16190;BME280;41754;51.498;7.540;2023-01-30T01:39:20;100419.22;;;4.45;76.33
16190;BME280;41754;51.498;7.540;2023-01-30T01:41:49;100415.34;;;4.30;78.10
16190;BME280;41754;51.498;7.540;2023-01-30T01:44:16;100411.34;;;4.48;79.03
16190;BME280;41754;51.498;7.540;2023-01-30T01:46:47;100442.50;;;4.10;80.08
16190;BME280;41754;51.498;7.540;2023-01-30T01:49:20;100413.53;;;3.94;82.01
16190;BME280;41754;51.498;7.540;2023-01-30T01:51:53;100402.84;;;4.34;82.11
16190;BME280;41754;51.498;7.540;2023-01-30T01:54:25;100400.75;;;4.77;79.98
16190;BME280;41754;51.498;7.540;2023-01-30T01:56:59;100409.69;;;4.52;80.38
16190;BME280;41754;51.498;7.540;2023-01-30T01:59:31;100427.91;;;4.36;81.24
16190;BME280;41754;51.498;7.540;2023-01-30T02:02:07;100400.84;;;5.38;79.12
16190;BME280;41754;51.498;7.540;2023-01-30T02:04:37;100375.59;;;6.07;73.76
16190;BME280;41754;51.498;7.540;2023-01-30T02:07:24;100371.25;;;6.06;72.55
16190;BME280;41754;51.498;7.540;2023-01-30T02:09:52;100361.41;;;6.05;71.49
16190;BME280;41754;51.498;7.540;2023-01-30T02:12:20;100364.13;;;6.05;72.03
16190;BME280;41754;51.498;7.540;2023-01-30T02:14:48;100356.56;;;5.82;72.58
16190;BME280;41754;51.498;7.540;2023-01-30T02:17:18;100354.06;;;5.91;71.98
16190;BME280;41754;51.498;7.540;2023-01-30T02:19:50;100338.25;;;5.77;72.55
16190;BME280;41754;51.498;7.540;2023-01-30T02:25:56;100322.06;;;6.01;71.49
16190;BME280;41754;51.498;7.540;2023-01-30T02:31:44;100313.84;;;6.11;71.19
16190;BME280;41754;51.498;7.540;2023-01-30T02:34:34;100332.06;;;5.57;72.61
16190;BME280;41754;51.498;7.540;2023-01-30T02:37:16;100306.75;;;6.10;72.00
16190;BME280;41754;51.498;7.540;2023-01-30T02:40:02;100304.50;;;6.18;71.81
16190;BME280;41754;51.498;7.540;2023-01-30T02:42:36;100310.72;;;5.74;72.70
16190;BME280;41754;51.498;7.540;2023-01-30T02:45:10;100319.22;;;5.52;73.94
16190;BME280;41754;51.498;7.540;2023-01-30T02:47:43;100307.38;;;5.87;73.71
16190;BME280;41754;51.498;7.540;2023-01-30T02:50:18;100310.66;;;5.94;72.77
16190;BME280;41754;51.498;7.540;2023-01-30T02:52:48;100316.03;;;6.04;72.46
16190;BME280;41754;51.498;7.540;2023-01-30T02:55:19;100309.38;;;6.26;72.35
16190;BME280;41754;51.498;7.540;2023-01-30T02:57:47;100297.47;;;6.56;70.84
16190;BME280;41754;51.498;7.540;2023-01-30T03:00:21;100312.00;;;6.46;69.95
16190;BME280;41754;51.498;7.540;2023-01-30T03:03:07;100290.13;;;6.46;69.96
16190;BME280;41754;51.498;7.540;2023-01-30T03:05:52;100304.16;;;6.34;69.64
16190;BME280;41754;51.498;7.540;2023-01-30T03:08:31;100296.66;;;6.55;70.44
16190;BME280;41754;51.498;7.540;2023-01-30T03:11:03;100280.97;;;6.27;70.07
16190;BME280;41754;51.498;7.540;2023-01-30T03:13:41;100290.91;;;6.52;70.41
16190;BME280;41754;51.498;7.540;2023-01-30T03:16:15;100284.31;;;6.19;71.91
16190;BME280;41754;51.498;7.540;2023-01-30T03:18:46;100282.28;;;5.80;72.33
16190;BME280;41754;51.498;7.540;2023-01-30T03:21:15;100272.28;;;6.15;71.54
16190;BME280;41754;51.498;7.540;2023-01-30T03:23:43;100261.25;;;6.35;70.88
16190;BME280;41754;51.498;7.540;2023-01-30T03:26:16;100274.03;;;6.45;70.95
16190;BME280;41754;51.498;7.540;2023-01-30T03:28:48;100268.81;;;6.48;70.35
16190;BME280;41754;51.498;7.540;2023-01-30T03:31:16;100264.91;;;6.54;70.43
16190;BME280;41754;51.498;7.540;2023-01-30T03:33:44;100261.47;;;6.38;70.29
16190;BME280;41754;51.498;7.540;2023-01-30T03:36:14;100258.53;;;6.30;70.49
16190;BME280;41754;51.498;7.540;2023-01-30T03:38:42;100236.31;;;6.76;69.67
16190;BME280;41754;51.498;7.540;2023-01-30T03:41:10;100249.22;;;6.36;71.51
16190;BME280;41754;51.498;7.540;2023-01-30T03:43:38;100240.25;;;6.25;71.48
16190;BME280;41754;51.498;7.540;2023-01-30T03:46:06;100243.22;;;6.34;70.56
16190;BME280;41754;51.498;7.540;2023-01-30T03:48:34;100223.53;;;6.66;71.45
16190;BME280;41754;51.498;7.540;2023-01-30T03:51:02;100235.19;;;6.48;72.43
16190;BME280;41754;51.498;7.540;2023-01-30T03:53:31;100228.63;;;6.83;72.22
16190;BME280;41754;51.498;7.540;2023-01-30T03:55:59;100199.97;;;6.41;72.60
16190;BME280;41754;51.498;7.540;2023-01-30T03:58:30;100217.69;;;6.83;71.42
16190;BME280;41754;51.498;7.540;2023-01-30T04:01:08;100224.41;;;6.61;72.01
16190;BME280;41754;51.498;7.540;2023-01-30T04:03:36;100206.25;;;6.07;73.95
16190;BME280;41754;51.498;7.540;2023-01-30T04:06:04;100214.09;;;6.19;74.97
16190;BME280;41754;51.498;7.540;2023-01-30T04:08:33;100207.19;;;6.27;74.51
16190;BME280;41754;51.498;7.540;2023-01-30T04:11:03;100200.53;;;6.43;74.07
16190;BME280;41754;51.498;7.540;2023-01-30T04:13:31;100199.25;;;5.86;74.85
16190;BME280;41754;51.498;7.540;2023-01-30T04:16:16;100210.72;;;6.32;75.56
16190;BME280;41754;51.498;7.540;2023-01-30T04:19:03;100196.47;;;5.91;74.76
16190;BME280;41754;51.498;7.540;2023-01-30T04:21:32;100197.59;;;6.63;74.74
16190;BME280;41754;51.498;7.540;2023-01-30T04:24:01;100199.94;;;6.46;75.45
16190;BME280;41754;51.498;7.540;2023-01-30T04:26:29;100204.84;;;6.49;74.30
16190;BME280;41754;51.498;7.540;2023-01-30T04:28:57;100199.16;;;6.40;73.92
16190;BME280;41754;51.498;7.540;2023-01-30T04:31:26;100223.19;;;6.44;74.64
16190;BME280;41754;51.498;7.540;2023-01-30T04:33:59;100197.41;;;6.21;76.55
16190;BME280;41754;51.498;7.540;2023-01-30T04:36:27;100188.13;;;6.17;76.80
16190;BME280;41754;51.498;7.540;2023-01-30T04:38:55;100180.22;;;6.78;74.92
16190;BME280;41754;51.498;7.540;2023-01-30T04:41:26;100197.19;;;7.04;73.17
16190;BME280;41754;51.498;7.540;2023-01-30T04:43:58;100171.31;;;7.20;73.29
16190;BME280;41754;51.498;7.540;2023-01-30T04:46:39;100187.00;;;5.78;74.18
16190;BME280;41754;51.498;7.540;2023-01-30T04:49:08;100195.19;;;5.04;80.69
16190;BME280;41754;51.498;7.540;2023-01-30T04:51:36;100192.03;;;6.74;75.26
16190;BME280;41754;51.498;7.540;2023-01-30T04:54:04;100195.38;;;6.65;73.81
16190;BME280;41754;51.498;7.540;2023-01-30T04:56:34;100188.13;;;6.17;77.62
16190;BME280;41754;51.498;7.540;2023-01-30T04:59:02;100186.41;;;6.31;78.56
16190;BME280;41754;51.498;7.540;2023-01-30T05:01:36;100187.97;;;5.48;81.69
16190;BME280;41754;51.498;7.540;2023-01-30T05:04:05;100180.38;;;5.30;83.06
16190;BME280;41754;51.498;7.540;2023-01-30T05:06:34;100181.00;;;5.02;84.45
16190;BME280;41754;51.498;7.540;2023-01-30T05:09:03;100191.84;;;5.32;83.88
16190;BME280;41754;51.498;7.540;2023-01-30T05:11:33;100184.69;;;5.51;83.19
16190;BME280;41754;51.498;7.540;2023-01-30T05:14:01;100185.13;;;7.10;77.98
16190;BME280;41754;51.498;7.540;2023-01-30T05:16:29;100182.25;;;5.99;79.37
16190;BME280;41754;51.498;7.540;2023-01-30T05:18:57;100170.44;;;6.09;78.13
16190;BME280;41754;51.498;7.540;2023-01-30T05:21:26;100175.97;;;6.67;77.46
16190;BME280;41754;51.498;7.540;2023-01-30T05:23:55;100181.47;;;6.33;77.06
16190;BME280;41754;51.498;7.540;2023-01-30T05:26:23;100178.00;;;5.83;77.60
16190;BME280;41754;51.498;7.540;2023-01-30T05:28:53;100176.03;;;6.28;78.53
16190;BME280;41754;51.498;7.540;2023-01-30T05:31:22;100173.06;;;6.58;77.57
16190;BME280;41754;51.498;7.540;2023-01-30T05:33:51;100163.53;;;6.22;74.76
16190;BME280;41754;51.498;7.540;2023-01-30T05:36:20;100176.03;;;5.89;80.92
16190;BME280;41754;51.498;7.540;2023-01-30T05:38:48;100159.91;;;6.26;80.00
16190;BME280;41754;51.498;7.540;2023-01-30T05:41:16;100156.97;;;6.18;80.19
16190;BME280;41754;51.498;7.540;2023-01-30T05:43:48;100159.19;;;6.50;79.11
16190;BME280;41754;51.498;7.540;2023-01-30T05:46:17;100145.22;;;6.22;80.00
16190;BME280;41754;51.498;7.540;2023-01-30T05:48:46;100152.16;;;6.38;79.12
16190;BME280;41754;51.498;7.540;2023-01-30T05:51:15;100162.63;;;6.31;81.51
16190;BME280;41754;51.498;7.540;2023-01-30T05:53:44;100162.88;;;6.35;80.22
16190;BME280;41754;51.498;7.540;2023-01-30T05:56:13;100165.28;;;6.02;81.68
16190;BME280;41754;51.498;7.540;2023-01-30T05:58:41;100165.81;;;6.73;81.11
16190;BME280;41754;51.498;7.540;2023-01-30T06:01:11;100159.16;;;6.21;81.12
16190;BME280;41754;51.498;7.540;2023-01-30T06:03:40;100165.34;;;6.89;77.09
16190;BME280;41754;51.498;7.540;2023-01-30T06:06:09;100153.72;;;7.02;76.35
16190;BME280;41754;51.498;7.540;2023-01-30T06:08:38;100135.06;;;7.34;75.12
16190;BME280;41754;51.498;7.540;2023-01-30T06:11:08;100126.22;;;7.42;75.41
16190;BME280;41754;51.498;7.540;2023-01-30T06:13:36;100133.22;;;7.48;74.76
16190;BME280;41754;51.498;7.540;2023-01-30T06:16:05;100139.28;;;7.21;75.22
16190;BME280;41754;51.498;7.540;2023-01-30T06:18:34;100148.03;;;7.47;75.89
16190;BME280;41754;51.498;7.540;2023-01-30T06:21:04;100141.44;;;7.48;74.33
16190;BME280;41754;51.498;7.540;2023-01-30T06:23:32;100146.75;;;7.39;74.65
16190;BME280;41754;51.498;7.540;2023-01-30T06:26:00;100157.66;;;7.44;76.57
16190;BME280;41754;51.498;7.540;2023-01-30T06:28:31;100170.69;;;7.28;76.53
16190;BME280;41754;51.498;7.540;2023-01-30T06:30:59;100166.31;;;7.51;76.34
16190;BME280;41754;51.498;7.540;2023-01-30T06:33:27;100167.63;;;7.54;75.89
16190;BME280;41754;51.498;7.540;2023-01-30T06:35:55;100167.41;;;7.50;76.29
16190;BME280;41754;51.498;7.540;2023-01-30T06:38:24;100174.13;;;7.39;75.62
16190;BME280;41754;51.498;7.540;2023-01-30T06:40:52;100178.03;;;7.57;76.04
16190;BME280;41754;51.498;7.540;2023-01-30T06:43:20;100163.75;;;7.60;74.82
16190;BME280;41754;51.498;7.540;2023-01-30T06:45:48;100172.13;;;7.69;74.47
16190;BME280;41754;51.498;7.540;2023-01-30T06:48:15;100189.81;;;7.95;74.64
16190;BME280;41754;51.498;7.540;2023-01-30T06:50:45;100192.19;;;8.21;72.88
16190;BME280;41754;51.498;7.540;2023-01-30T06:53:13;100191.00;;;8.08;71.21
16190;BME280;41754;51.498;7.540;2023-01-30T06:55:42;100194.25;;;8.10;72.47
16190;BME280;41754;51.498;7.540;2023-01-30T06:58:13;100181.31;;;8.48;71.46
16190;BME280;41754;51.498;7.540;2023-01-30T07:00:42;100195.25;;;7.57;74.36
16190;BME280;41754;51.498;7.540;2023-01-30T07:03:10;100193.47;;;7.24;74.77
16190;BME280;41754;51.498;7.540;2023-01-30T07:05:38;100186.41;;;7.18;76.96
16190;BME280;41754;51.498;7.540;2023-01-30T07:08:06;100194.09;;;7.40;76.62
16190;BME280;41754;51.498;7.540;2023-01-30T07:10:34;100176.69;;;7.73;76.20
16190;BME280;41754;51.498;7.540;2023-01-30T07:13:03;100185.94;;;7.58;76.52
16190;BME280;41754;51.498;7.540;2023-01-30T07:15:31;100191.63;;;7.62;75.25
16190;BME280;41754;51.498;7.540;2023-01-30T07:17:59;100183.31;;;7.48;75.56
16190;BME280;41754;51.498;7.540;2023-01-30T07:20:27;100185.13;;;7.58;75.34
16190;BME280;41754;51.498;7.540;2023-01-30T07:22:56;100178.66;;;7.92;73.58
16190;BME280;41754;51.498;7.540;2023-01-30T07:25:25;100193.34;;;7.58;74.23
16190;BME280;41754;51.498;7.540;2023-01-30T07:27:55;100191.41;;;7.58;74.35
16190;BME280;41754;51.498;7.540;2023-01-30T07:30:25;100183.81;;;7.74;74.01
16190;BME280;41754;51.498;7.540;2023-01-30T07:32:55;100201.38;;;7.92;72.75
16190;BME280;41754;51.498;7.540;2023-01-30T07:35:25;100199.59;;;7.82;73.57
16190;BME280;41754;51.498;7.540;2023-01-30T07:37:53;100214.09;;;7.83;73.48
16190;BME280;41754;51.498;7.540;2023-01-30T07:40:22;100199.94;;;7.76;73.69
16190;BME280;41754;51.498;7.540;2023-01-30T07:42:57;100202.47;;;7.72;73.52
16190;BME280;41754;51.498;7.540;2023-01-30T07:45:27;100214.31;;;7.86;73.44
16190;BME280;41754;51.498;7.540;2023-01-30T07:47:56;100198.69;;;7.87;73.26
16190;BME280;41754;51.498;7.540;2023-01-30T07:50:24;100215.69;;;7.65;74.23
16190;BME280;41754;51.498;7.540;2023-01-30T07:52:52;100217.34;;;7.85;72.75
16190;BME280;41754;51.498;7.540;2023-01-30T07:55:20;100211.28;;;8.26;71.71
16190;BME280;41754;51.498;7.540;2023-01-30T07:57:48;100200.56;;;7.92;69.99
16190;BME280;41754;51.498;7.540;2023-01-30T08:00:16;100206.31;;;7.71;71.74
16190;BME280;41754;51.498;7.540;2023-01-30T08:02:46;100209.88;;;7.91;70.23
16190;BME280;41754;51.498;7.540;2023-01-30T08:05:14;100222.47;;;7.49;70.43
16190;BME280;41754;51.498;7.540;2023-01-30T08:07:42;100204.75;;;7.41;69.64
16190;BME280;41754;51.498;7.540;2023-01-30T08:10:10;100199.13;;;7.75;68.74
16190;BME280;41754;51.498;7.540;2023-01-30T08:12:38;100204.84;;;7.98;67.68
16190;BME280;41754;51.498;7.540;2023-01-30T08:15:07;100212.50;;;7.58;67.43
16190;BME280;41754;51.498;7.540;2023-01-30T08:17:35;100211.78;;;7.71;66.79
16190;BME280;41754;51.498;7.540;2023-01-30T08:20:06;100218.19;;;8.04;66.83
16190;BME280;41754;51.498;7.540;2023-01-30T08:22:34;100219.16;;;7.95;66.18
16190;BME280;41754;51.498;7.540;2023-01-30T08:25:02;100217.94;;;7.82;65.97
16190;BME280;41754;51.498;7.540;2023-01-30T08:27:30;100227.38;;;8.32;64.68
16190;BME280;41754;51.498;7.540;2023-01-30T08:29:58;100219.00;;;8.75;63.34
16190;BME280;41754;51.498;7.540;2023-01-30T08:32:26;100229.31;;;8.64;62.67
16190;BME280;41754;51.498;7.540;2023-01-30T08:34:53;100230.91;;;8.14;64.29
16190;BME280;41754;51.498;7.540;2023-01-30T08:37:22;100226.78;;;8.87;61.99
16190;BME280;41754;51.498;7.540;2023-01-30T08:39:50;100230.03;;;8.89;61.53
16190;BME280;41754;51.498;7.540;2023-01-30T08:42:18;100228.81;;;8.81;60.56
16190;BME280;41754;51.498;7.540;2023-01-30T08:44:46;100229.84;;;8.99;60.79
16190;BME280;41754;51.498;7.540;2023-01-30T08:47:14;100231.13;;;8.36;61.17
16190;BME280;41754;51.498;7.540;2023-01-30T08:49:41;100222.72;;;8.84;59.17
16190;BME280;41754;51.498;7.540;2023-01-30T08:52:09;100229.88;;;8.47;60.67
16190;BME280;41754;51.498;7.540;2023-01-30T08:54:38;100230.25;;;8.92;59.25
16190;BME280;41754;51.498;7.540;2023-01-30T08:57:06;100233.72;;;8.46;59.68
16190;BME280;41754;51.498;7.540;2023-01-30T08:59:34;100240.25;;;8.51;60.26
16190;BME280;41754;51.498;7.540;2023-01-30T09:02:02;100241.00;;;8.37;60.32
16190;BME280;41754;51.498;7.540;2023-01-30T09:04:31;100255.22;;;8.21;60.55
16190;BME280;41754;51.498;7.540;2023-01-30T09:06:58;100255.38;;;7.92;60.90
16190;BME280;41754;51.498;7.540;2023-01-30T09:09:27;100266.13;;;8.07;60.11
16190;BME280;41754;51.498;7.540;2023-01-30T09:11:56;100252.28;;;8.17;59.13
16190;BME280;41754;51.498;7.540;2023-01-30T09:14:24;100252.41;;;8.44;58.10
16190;BME280;41754;51.498;7.540;2023-01-30T09:16:52;100266.34;;;8.29;58.15
16190;BME280;41754;51.498;7.540;2023-01-30T09:19:22;100247.88;;;8.16;57.60
16190;BME280;41754;51.498;7.540;2023-01-30T09:21:50;100262.72;;;8.34;56.62
16190;BME280;41754;51.498;7.540;2023-01-30T09:24:18;100241.88;;;8.52;56.13
16190;BME280;41754;51.498;7.540;2023-01-30T09:26:46;100226.56;;;8.13;56.37
16190;BME280;41754;51.498;7.540;2023-01-30T09:29:16;100258.09;;;8.48;56.09
16190;BME280;41754;51.498;7.540;2023-01-30T09:31:43;100257.03;;;8.30;56.33
16190;BME280;41754;51.498;7.540;2023-01-30T09:34:11;100263.31;;;8.31;56.69
16190;BME280;41754;51.498;7.540;2023-01-30T09:36:39;100267.34;;;7.96;57.49
16190;BME280;41754;51.498;7.540;2023-01-30T09:39:07;100268.56;;;8.27;56.82
16190;BME280;41754;51.498;7.540;2023-01-30T09:41:53;100253.72;;;8.28;55.98
16190;BME280;41754;51.498;7.540;2023-01-30T09:44:51;100260.78;;;8.34;55.48
16190;BME280;41754;51.498;7.540;2023-01-30T09:47:33;100291.97;;;8.38;55.35
16190;BME280;41754;51.498;7.540;2023-01-30T09:50:16;100306.56;;;8.34;55.06
16190;BME280;41754;51.498;7.540;2023-01-30T09:52:53;100289.59;;;8.13;55.30
16190;BME280;41754;51.498;7.540;2023-01-30T09:55:24;100288.84;;;8.26;54.89
16190;BME280;41754;51.498;7.540;2023-01-30T09:57:56;100297.00;;;8.50;54.39
16190;BME280;41754;51.498;7.540;2023-01-30T10:00:29;100317.91;;;8.27;54.53
16190;BME280;41754;51.498;7.540;2023-01-30T10:03:03;100305.16;;;8.36;55.14
16190;BME280;41754;51.498;7.540;2023-01-30T10:05:35;100302.38;;;7.99;55.28
16190;BME280;41754;51.498;7.540;2023-01-30T10:08:25;100329.03;;;7.93;55.72
16190;BME280;41754;51.498;7.540;2023-01-30T10:11:01;100315.69;;;8.29;55.41
16190;BME280;41754;51.498;7.540;2023-01-30T10:13:57;100310.47;;;8.09;55.33
16190;BME280;41754;51.498;7.540;2023-01-30T10:16:36;100306.91;;;8.08;54.72
16190;BME280;41754;51.498;7.540;2023-01-30T10:19:31;100297.81;;;8.51;53.78
16190;BME280;41754;51.498;7.540;2023-01-30T10:22:11;100295.78;;;8.42;54.31
16190;BME280;41754;51.498;7.540;2023-01-30T10:24:49;100293.25;;;8.84;53.62
16190;BME280;41754;51.498;7.540;2023-01-30T10:27:22;100291.22;;;8.52;53.42
16190;BME280;41754;51.498;7.540;2023-01-30T10:29:54;100294.78;;;8.71;52.98
16190;BME280;41754;51.498;7.540;2023-01-30T10:32:26;100296.56;;;8.24;53.35
16190;BME280;41754;51.498;7.540;2023-01-30T10:35:05;100287.66;;;8.51;53.19
16190;BME280;41754;51.498;7.540;2023-01-30T10:37:43;100301.44;;;8.65;52.53
16190;BME280;41754;51.498;7.540;2023-01-30T10:40:18;100269.94;;;8.62;52.69
16190;BME280;41754;51.498;7.540;2023-01-30T10:42:58;100296.56;;;8.24;52.16
16190;BME280;41754;51.498;7.540;2023-01-30T10:45:35;100291.38;;;8.04;53.31
16190;BME280;41754;51.498;7.540;2023-01-30T10:48:18;100295.88;;;7.95;53.52
16190;BME280;41754;51.498;7.540;2023-01-30T10:51:15;100288.72;;;8.36;52.68
16190;BME280;41754;51.498;7.540;2023-01-30T10:53:51;100291.81;;;8.86;51.53
16190;BME280;41754;51.498;7.540;2023-01-30T10:56:27;100286.66;;;8.47;52.38
16190;BME280;41754;51.498;7.540;2023-01-30T10:59:05;100300.28;;;8.33;52.16
16190;BME280;41754;51.498;7.540;2023-01-30T11:01:39;100282.63;;;8.58;51.43
16190;BME280;41754;51.498;7.540;2023-01-30T11:04:21;100286.47;;;8.95;51.06
16190;BME280;41754;51.498;7.540;2023-01-30T11:06:51;100286.56;;;8.71;51.56
16190;BME280;41754;51.498;7.540;2023-01-30T11:09:20;100285.75;;;8.52;51.86
16190;BME280;41754;51.498;7.540;2023-01-30T11:11:51;100288.13;;;8.39;52.17
16190;BME280;41754;51.498;7.540;2023-01-30T11:14:19;100300.88;;;8.30;52.15
16190;BME280;41754;51.498;7.540;2023-01-30T11:16:49;100300.25;;;8.90;51.53
16190;BME280;41754;51.498;7.540;2023-01-30T11:19:21;100299.63;;;8.79;51.46
16190;BME280;41754;51.498;7.540;2023-01-30T11:21:51;100285.66;;;9.41;50.05
16190;BME280;41754;51.498;7.540;2023-01-30T11:24:22;100291.91;;;9.14;50.04
16190;BME280;41754;51.498;7.540;2023-01-30T11:26:51;100298.25;;;9.28;49.83
16190;BME280;41754;51.498;7.540;2023-01-30T11:29:27;100297.94;;;9.16;50.18
16190;BME280;41754;51.498;7.540;2023-01-30T11:32:00;100302.91;;;8.76;50.51
16190;BME280;41754;51.498;7.540;2023-01-30T11:34:30;100305.81;;;9.03;50.69
16190;BME280;41754;51.498;7.540;2023-01-30T11:37:12;100299.22;;;9.04;50.07
16190;BME280;41754;51.498;7.540;2023-01-30T11:39:47;100301.63;;;8.92;50.58
16190;BME280;41754;51.498;7.540;2023-01-30T11:42:18;100309.31;;;8.53;51.06
16190;BME280;41754;51.498;7.540;2023-01-30T11:44:54;100299.03;;;8.82;51.00
16190;BME280;41754;51.498;7.540;2023-01-30T11:47:36;100296.97;;;9.07;50.78
16190;BME280;41754;51.498;7.540;2023-01-30T11:50:16;100302.72;;;9.38;50.04
16190;BME280;41754;51.498;7.540;2023-01-30T11:53:02;100311.97;;;8.95;50.28
16190;BME280;41754;51.498;7.540;2023-01-30T11:55:34;100310.59;;;9.12;50.17
16190;BME280;41754;51.498;7.540;2023-01-30T11:58:07;100305.22;;;9.07;50.09
16190;BME280;41754;51.498;7.540;2023-01-30T12:00:38;100312.06;;;9.23;49.93
16190;BME280;41754;51.498;7.540;2023-01-30T12:03:10;100308.19;;;9.24;50.64
16190;BME280;41754;51.498;7.540;2023-01-30T12:05:43;100305.13;;;9.12;50.32
16190;BME280;41754;51.498;7.540;2023-01-30T12:08:20;100313.41;;;9.39;49.37
16190;BME280;41754;51.498;7.540;2023-01-30T12:11:23;100310.34;;;8.94;49.82
16190;BME280;41754;51.498;7.540;2023-01-30T12:13:53;100314.03;;;9.50;48.59
16190;BME280;41754;51.498;7.540;2023-01-30T12:16:24;100304.84;;;9.27;48.48
16190;BME280;41754;51.498;7.540;2023-01-30T12:18:58;100305.84;;;9.91;48.73
16190;BME280;41754;51.498;7.540;2023-01-30T12:21:35;100315.56;;;9.42;49.41
16190;BME280;41754;51.498;7.540;2023-01-30T12:24:14;100314.78;;;9.55;49.39
16190;BME280;41754;51.498;7.540;2023-01-30T12:26:52;100327.38;;;9.56;49.79
16190;BME280;41754;51.498;7.540;2023-01-30T12:29:26;100312.66;;;9.20;49.73
16190;BME280;41754;51.498;7.540;2023-01-30T12:32:03;100306.56;;;9.23;49.99
16190;BME280;41754;51.498;7.540;2023-01-30T12:34:32;100308.50;;;9.22;49.25
16190;BME280;41754;51.498;7.540;2023-01-30T12:37:17;100316.78;;;9.50;49.68
16190;BME280;41754;51.498;7.540;2023-01-30T12:39:56;100312.75;;;9.75;48.28
16190;BME280;41754;51.498;7.540;2023-01-30T12:42:40;100312.72;;;9.61;48.91
16190;BME280;41754;51.498;7.540;2023-01-30T12:45:20;100315.34;;;9.52;49.00
16190;BME280;41754;51.498;7.540;2023-01-30T12:48:32;100314.31;;;9.34;48.50
16190;BME280;41754;51.498;7.540;2023-01-30T12:51:46;100314.38;;;9.76;47.76
16190;BME280;41754;51.498;7.540;2023-01-30T12:54:28;100313.06;;;10.28;46.74
16190;BME280;41754;51.498;7.540;2023-01-30T12:57:10;100304.03;;;10.50;45.45
16190;BME280;41754;51.498;7.540;2023-01-30T12:59:48;100293.00;;;9.86;45.63
16190;BME280;41754;51.498;7.540;2023-01-30T13:05:24;100311.44;;;9.26;48.08
16190;BME280;41754;51.498;7.540;2023-01-30T13:08:05;100305.97;;;9.40;46.59
16190;BME280;41754;51.498;7.540;2023-01-30T13:10:44;100313.34;;;9.44;46.63
16190;BME280;41754;51.498;7.540;2023-01-30T13:13:21;100318.75;;;9.77;46.76
16190;BME280;41754;51.498;7.540;2023-01-30T13:15:59;100306.63;;;9.64;46.19
16190;BME280;41754;51.498;7.540;2023-01-30T13:18:34;100332.69;;;9.67;46.41
16190;BME280;41754;51.498;7.540;2023-01-30T13:21:07;100338.38;;;9.56;46.24
16190;BME280;41754;51.498;7.540;2023-01-30T13:23:43;100332.06;;;9.42;46.36
16190;BME280;41754;51.498;7.540;2023-01-30T13:26:18;100338.38;;;10.11;45.70
16190;BME280;41754;51.498;7.540;2023-01-30T13:28:50;100343.88;;;9.98;45.97
16190;BME280;41754;51.498;7.540;2023-01-30T13:31:23;100341.66;;;10.00;45.26
16190;BME280;41754;51.498;7.540;2023-01-30T13:34:01;100325.66;;;9.74;45.64
16190;BME280;41754;51.498;7.540;2023-01-30T13:36:38;100351.38;;;9.51;46.75